createdAt,value
2024-02-11T00:01:10.310Z,100.00
2024-02-11T00:03:13.145Z,100.00
2024-02-11T00:05:17.542Z,100.00
2024-02-11T00:07:21.575Z,100.00
2024-02-11T00:09:25.722Z,100.00
2024-02-11T00:11:30.027Z,100.00
2024-02-11T00:13:34.662Z,100.00
2024-02-11T00:15:40.652Z,100.00
2024-02-11T00:17:46.746Z,100.00
2024-02-11T00:19:49.885Z,100.00
2024-02-11T00:21:54.068Z,100.00
2024-02-11T00:24:00.398Z,100.00
2024-02-11T00:26:04.990Z,100.00
2024-02-11T00:28:10.936Z,100.00
2024-02-11T00:30:15.597Z,100.00
2024-02-11T00:32:19.961Z,100.00
2024-02-11T00:34:26.004Z,100.00
2024-02-11T00:36:30.290Z,100.00
2024-02-11T00:38:34.539Z,100.00
2024-02-11T00:40:38.647Z,100.00
2024-02-11T00:42:42.745Z,100.00
2024-02-11T00:44:47.153Z,100.00
2024-02-11T00:46:51.212Z,100.00
2024-02-11T00:48:55.886Z,100.00
2024-02-11T00:51:02.399Z,100.00
2024-02-11T00:53:07.024Z,100.00
2024-02-11T00:55:11.878Z,100.00
2024-02-11T00:57:16.308Z,100.00
2024-02-11T00:59:20.731Z,100.00
2024-02-11T01:01:25.536Z,100.00
2024-02-11T01:03:31.115Z,100.00
2024-02-11T01:05:37.909Z,100.00
2024-02-11T01:07:43.104Z,100.00
2024-02-11T01:09:47.333Z,100.00
2024-02-11T01:11:52.164Z,100.00
2024-02-11T01:13:56.418Z,100.00
2024-02-11T01:16:00.880Z,100.00
2024-02-11T01:18:05.613Z,100.00
2024-02-11T01:20:10.477Z,100.00
2024-02-11T01:22:15.392Z,100.00
2024-02-11T01:24:21.125Z,100.00
2024-02-11T01:26:25.460Z,100.00
2024-02-11T01:28:31.857Z,100.00
2024-02-11T01:30:36.740Z,100.00
2024-02-11T01:32:39.914Z,100.00
2024-02-11T01:34:44.153Z,100.00
2024-02-11T01:36:48.779Z,100.00
2024-02-11T01:38:54.711Z,100.00
2024-02-11T01:41:00.559Z,100.00
2024-02-11T01:43:11.002Z,100.00
2024-02-11T01:45:16.654Z,100.00
2024-02-11T01:47:22.245Z,100.00
2024-02-11T01:49:27.696Z,100.00
2024-02-11T01:51:34.368Z,100.00
2024-02-11T01:53:39.009Z,100.00
2024-02-11T01:55:44.713Z,100.00
2024-02-11T01:57:52.707Z,100.00
2024-02-11T01:59:56.981Z,100.00
2024-02-11T02:02:00.873Z,100.00
2024-02-11T02:04:05.678Z,100.00
2024-02-11T02:06:10.694Z,100.00
2024-02-11T02:08:15.082Z,100.00
2024-02-11T02:10:19.625Z,100.00
2024-02-11T02:12:24.533Z,100.00
2024-02-11T02:14:30.352Z,100.00
2024-02-11T02:16:34.522Z,100.00
2024-02-11T02:18:39.408Z,100.00
2024-02-11T02:20:43.668Z,100.00
2024-02-11T02:22:50.845Z,100.00
2024-02-11T02:24:54.010Z,100.00
2024-02-11T02:26:58.006Z,100.00
2024-02-11T02:29:01.193Z,100.00
2024-02-11T02:31:07.438Z,100.00
2024-02-11T02:33:11.875Z,100.00
2024-02-11T02:35:23.481Z,100.00
2024-02-11T02:37:28.074Z,100.00
2024-02-11T02:39:33.925Z,100.00
2024-02-11T02:41:37.996Z,100.00
2024-02-11T02:43:42.374Z,100.00
2024-02-11T02:45:46.492Z,100.00
2024-02-11T02:47:49.868Z,100.00
2024-02-11T02:49:54.381Z,100.00
2024-02-11T02:52:03.183Z,100.00
2024-02-11T02:54:07.296Z,100.00
2024-02-11T02:56:13.165Z,100.00
2024-02-11T02:58:17.548Z,100.00
2024-02-11T03:00:22.749Z,100.00
2024-02-11T03:02:29.068Z,100.00
2024-02-11T03:04:33.456Z,100.00
2024-02-11T03:06:36.684Z,100.00
2024-02-11T03:08:40.965Z,100.00
2024-02-11T03:10:45.632Z,100.00
2024-02-11T03:12:51.624Z,100.00
2024-02-11T03:14:56.240Z,100.00
2024-02-11T03:17:00.997Z,100.00
2024-02-11T03:19:07.357Z,100.00
2024-02-11T03:21:12.350Z,100.00
2024-02-11T03:23:16.360Z,100.00
2024-02-11T03:25:20.729Z,100.00
2024-02-11T03:27:26.023Z,100.00
2024-02-11T03:29:32.316Z,100.00
2024-02-11T03:31:36.594Z,100.00
2024-02-11T03:33:40.963Z,100.00
2024-02-11T03:35:46.935Z,100.00
2024-02-11T03:37:50.121Z,100.00
2024-02-11T03:39:54.662Z,100.00
2024-02-11T03:41:59.232Z,100.00
2024-02-11T03:44:04.704Z,100.00
2024-02-11T03:46:10.537Z,100.00
2024-02-11T03:48:14.087Z,100.00
2024-02-11T03:50:21.295Z,100.00
2024-02-11T03:52:25.417Z,100.00
2024-02-11T03:54:30.046Z,100.00
2024-02-11T03:56:36.879Z,100.00
2024-02-11T03:58:42.844Z,100.00
2024-02-11T04:00:49.032Z,100.00
2024-02-11T04:02:55.891Z,100.00
2024-02-11T04:05:00.261Z,100.00
2024-02-11T04:07:04.582Z,100.00
2024-02-11T04:09:10.697Z,100.00
2024-02-11T04:11:15.644Z,100.00
2024-02-11T04:13:25.729Z,100.00
2024-02-11T04:15:30.191Z,100.00
2024-02-11T04:17:37.902Z,100.00
2024-02-11T04:19:45.811Z,100.00
2024-02-11T04:21:51.562Z,100.00
2024-02-11T04:23:55.881Z,100.00
2024-02-11T04:25:59.709Z,100.00
2024-02-11T04:28:04.815Z,100.00
2024-02-11T04:30:14.402Z,100.00
2024-02-11T04:32:18.660Z,100.00
2024-02-11T04:34:23.599Z,100.00
2024-02-11T04:36:31.551Z,100.00
2024-02-11T04:38:37.028Z,100.00
2024-02-11T04:40:42.269Z,100.00
2024-02-11T04:42:47.514Z,100.00
2024-02-11T04:44:52.797Z,100.00
2024-02-11T04:46:57.039Z,100.00
2024-02-11T04:49:01.622Z,100.00
2024-02-11T04:51:09.030Z,100.00
2024-02-11T04:53:14.122Z,100.00
2024-02-11T04:55:20.186Z,100.00
2024-02-11T04:57:24.529Z,100.00
2024-02-11T04:59:28.847Z,100.00
2024-02-11T05:01:33.647Z,100.00
2024-02-11T05:03:39.270Z,100.00
2024-02-11T05:05:44.176Z,100.00
2024-02-11T05:07:49.065Z,100.00
2024-02-11T05:09:55.133Z,100.00
2024-02-11T05:11:59.573Z,100.00
2024-02-11T05:14:04.241Z,100.00
2024-02-11T05:16:09.898Z,100.00
2024-02-11T05:18:17.651Z,100.00
2024-02-11T05:20:25.637Z,100.00
2024-02-11T05:22:31.978Z,100.00
2024-02-11T05:24:38.618Z,100.00
2024-02-11T05:26:44.871Z,100.00
2024-02-11T05:28:49.304Z,100.00
2024-02-11T05:30:54.709Z,100.00
2024-02-11T05:33:00.440Z,100.00
2024-02-11T05:35:10.963Z,100.00
2024-02-11T05:37:15.288Z,100.00
2024-02-11T05:39:20.802Z,100.00
2024-02-11T05:41:25.285Z,100.00
2024-02-11T05:43:31.276Z,100.00
2024-02-11T05:45:36.127Z,100.00
2024-02-11T05:47:40.662Z,100.00
2024-02-11T05:49:44.942Z,100.00
2024-02-11T05:51:50.849Z,100.00
2024-02-11T05:53:56.512Z,100.00
2024-02-11T05:56:02.454Z,100.00
2024-02-11T05:58:07.121Z,100.00
2024-02-11T06:00:15.662Z,100.00
2024-02-11T06:02:20.086Z,100.00
2024-02-11T06:04:25.789Z,100.00
2024-02-11T06:06:29.930Z,100.00
2024-02-11T06:08:35.728Z,100.00
2024-02-11T06:10:41.386Z,100.00
2024-02-11T06:12:47.052Z,100.00
2024-02-11T06:14:51.258Z,100.00
2024-02-11T06:16:57.632Z,100.00
2024-02-11T06:19:02.263Z,100.00
2024-02-11T06:21:08.475Z,100.00
2024-02-11T06:23:12.185Z,100.00
2024-02-11T06:25:17.430Z,100.00
2024-02-11T06:27:21.964Z,100.00
2024-02-11T06:29:28.054Z,100.00
2024-02-11T06:31:32.327Z,100.00
2024-02-11T06:33:38.796Z,100.00
2024-02-11T06:35:43.376Z,100.00
2024-02-11T06:37:49.193Z,100.00
2024-02-11T06:39:54.853Z,100.00
2024-02-11T06:42:00.758Z,100.00
2024-02-11T06:44:05.926Z,100.00
2024-02-11T06:46:10.214Z,100.00
2024-02-11T06:48:14.987Z,100.00
2024-02-11T06:50:23.455Z,100.00
2024-02-11T06:52:27.171Z,100.00
2024-02-11T06:54:32.354Z,100.00
2024-02-11T06:56:36.405Z,100.00
2024-02-11T06:58:43.034Z,100.00
2024-02-11T07:00:47.503Z,100.00
2024-02-11T07:02:55.195Z,100.00
2024-02-11T07:05:01.998Z,100.00
2024-02-11T07:07:07.823Z,100.00
2024-02-11T07:09:12.768Z,100.00
2024-02-11T07:11:18.571Z,100.00
2024-02-11T07:13:23.133Z,100.00
2024-02-11T07:15:27.409Z,100.00
2024-02-11T07:17:31.836Z,100.00
2024-02-11T07:19:36.003Z,100.00
2024-02-11T07:21:41.373Z,100.00
2024-02-11T07:23:48.161Z,100.00
2024-02-11T07:25:54.160Z,100.00
2024-02-11T07:27:58.623Z,100.00
2024-02-11T07:30:03.566Z,100.00
2024-02-11T07:32:08.762Z,100.00
2024-02-11T07:34:15.569Z,100.00
2024-02-11T07:36:23.361Z,100.00
2024-02-11T07:38:28.346Z,100.00
2024-02-11T07:40:34.274Z,100.00
2024-02-11T07:42:38.778Z,100.00
2024-02-11T07:44:42.443Z,100.00
2024-02-11T07:46:46.772Z,100.00
2024-02-11T07:48:51.189Z,100.00
2024-02-11T07:50:55.234Z,100.00
2024-02-11T07:52:59.024Z,100.00
2024-02-11T07:55:01.701Z,100.00
2024-02-11T07:57:07.429Z,100.00
2024-02-11T07:59:13.000Z,100.00
2024-02-11T08:01:16.853Z,100.00
2024-02-11T08:03:24.615Z,100.00
2024-02-11T08:05:28.606Z,100.00
2024-02-11T08:07:32.561Z,100.00
2024-02-11T08:09:51.506Z,100.00
2024-02-11T08:11:54.438Z,100.00
2024-02-11T08:14:00.830Z,100.00
2024-02-11T08:16:05.171Z,100.00
2024-02-11T08:18:12.520Z,100.00
2024-02-11T08:20:17.507Z,100.00
2024-02-11T08:22:21.515Z,100.00
2024-02-11T08:24:25.354Z,100.00
2024-02-11T08:26:29.138Z,100.00
2024-02-11T08:28:33.013Z,100.00
2024-02-11T08:30:38.552Z,100.00
2024-02-11T08:32:44.841Z,100.00
2024-02-11T08:34:49.694Z,100.00
2024-02-11T08:36:52.438Z,100.00
2024-02-11T08:38:56.287Z,100.00
2024-02-11T08:41:00.670Z,100.00
2024-02-11T08:43:03.298Z,100.00
2024-02-11T08:45:07.801Z,100.00
2024-02-11T08:47:13.027Z,100.00
2024-02-11T08:49:18.234Z,100.00
2024-02-11T08:51:23.281Z,100.00
2024-02-11T08:53:27.091Z,100.00
2024-02-11T08:55:31.918Z,100.00
2024-02-11T08:57:34.682Z,100.00
2024-02-11T08:59:43.273Z,100.00
2024-02-11T09:01:53.061Z,100.00
2024-02-11T09:04:01.201Z,100.00
2024-02-11T09:06:07.271Z,100.00
2024-02-11T09:08:11.686Z,100.00
2024-02-11T09:10:16.628Z,100.00
2024-02-11T09:12:20.930Z,100.00
2024-02-11T09:14:26.278Z,100.00
2024-02-11T09:16:29.997Z,100.00
2024-02-11T09:18:34.107Z,100.00
2024-02-11T09:20:39.670Z,100.00
2024-02-11T09:22:43.950Z,100.00
2024-02-11T09:24:48.480Z,100.00
2024-02-11T09:26:53.407Z,100.00
2024-02-11T09:28:57.620Z,100.00
2024-02-11T09:31:02.520Z,100.00
2024-02-11T09:33:06.970Z,100.00
2024-02-11T09:35:11.256Z,100.00
2024-02-11T09:37:17.017Z,100.00
2024-02-11T09:39:19.942Z,100.00
2024-02-11T09:41:23.826Z,100.00
2024-02-11T09:43:29.822Z,100.00
2024-02-11T09:45:36.069Z,100.00
2024-02-11T09:47:42.446Z,100.00
2024-02-11T09:49:50.400Z,100.00
2024-02-11T09:52:01.167Z,100.00
2024-02-11T09:54:07.993Z,100.00
2024-02-11T09:56:12.539Z,100.00
2024-02-11T09:58:16.575Z,100.00
2024-02-11T10:00:22.066Z,100.00
2024-02-11T10:02:27.467Z,100.00
2024-02-11T10:04:33.618Z,100.00
2024-02-11T10:06:39.546Z,100.00
2024-02-11T10:08:44.071Z,100.00
2024-02-11T10:10:51.266Z,100.00
2024-02-11T10:12:58.668Z,100.00
2024-02-11T10:15:02.353Z,100.00
2024-02-11T10:17:08.435Z,100.00
2024-02-11T10:19:13.130Z,100.00
2024-02-11T10:21:18.474Z,100.00
2024-02-11T10:23:25.903Z,100.00
2024-02-11T10:25:30.022Z,100.00
2024-02-11T10:27:35.368Z,100.00
2024-02-11T10:29:39.408Z,100.00
2024-02-11T10:31:44.507Z,100.00
2024-02-11T10:33:48.314Z,100.00
2024-02-11T10:35:53.332Z,100.00
2024-02-11T10:37:57.706Z,100.00
2024-02-11T10:40:01.655Z,100.00
2024-02-11T10:42:05.294Z,100.00
2024-02-11T10:44:11.518Z,100.00
2024-02-11T10:46:15.627Z,100.00
2024-02-11T10:48:19.709Z,100.00
2024-02-11T10:50:23.841Z,100.00
2024-02-11T10:52:33.024Z,100.00
2024-02-11T10:54:43.299Z,100.00
2024-02-11T10:56:47.681Z,100.00
2024-02-11T10:58:59.980Z,100.00
2024-02-11T11:01:07.397Z,100.00
2024-02-11T11:03:16.508Z,100.00
2024-02-11T11:05:23.456Z,100.00
2024-02-11T11:07:34.293Z,100.00
2024-02-11T11:09:39.948Z,100.00
2024-02-11T11:11:43.928Z,100.00
2024-02-11T11:13:50.604Z,100.00
2024-02-11T11:15:53.653Z,100.00
2024-02-11T11:18:00.950Z,100.00
2024-02-11T11:20:14.763Z,100.00
2024-02-11T11:22:27.304Z,100.00
2024-02-11T11:24:31.232Z,100.00
2024-02-11T11:26:35.265Z,100.00
2024-02-11T11:28:42.610Z,100.00
2024-02-11T11:30:46.728Z,100.00
2024-02-11T11:32:51.623Z,100.00
2024-02-11T11:34:57.305Z,100.00
2024-02-11T11:37:14.832Z,100.00
2024-02-11T11:39:20.197Z,100.00
2024-02-11T11:41:27.196Z,100.00
2024-02-11T11:43:31.772Z,100.00
2024-02-11T11:45:35.617Z,100.00
2024-02-11T11:47:40.582Z,100.00
2024-02-11T11:49:44.320Z,100.00
2024-02-11T11:51:49.401Z,100.00
2024-02-11T11:53:53.888Z,100.00
2024-02-11T11:56:01.248Z,100.00
2024-02-11T11:58:03.987Z,100.00
2024-02-11T12:00:11.748Z,100.00
2024-02-11T12:02:18.700Z,100.00
2024-02-11T12:04:22.848Z,100.00
2024-02-11T12:06:27.923Z,100.00
2024-02-11T12:08:34.672Z,100.00
2024-02-11T12:10:39.215Z,100.00
2024-02-11T12:12:43.341Z,100.00
2024-02-11T12:14:48.419Z,100.00
2024-02-11T12:16:52.209Z,100.00
2024-02-11T12:18:56.592Z,100.00
2024-02-11T12:21:01.087Z,100.00
2024-02-11T12:23:04.679Z,100.00
2024-02-11T12:25:11.482Z,100.00
2024-02-11T12:27:19.746Z,100.00
2024-02-11T12:29:29.113Z,100.00
2024-02-11T12:31:34.585Z,100.00
2024-02-11T12:33:43.213Z,100.00
2024-02-11T12:35:48.359Z,100.00
2024-02-11T12:37:52.304Z,100.00
2024-02-11T12:39:58.606Z,100.00
2024-02-11T12:42:06.135Z,100.00
2024-02-11T12:44:11.816Z,100.00
2024-02-11T12:46:15.149Z,100.00
2024-02-11T12:48:19.431Z,100.00
2024-02-11T12:50:25.935Z,100.00
2024-02-11T12:52:30.705Z,100.00
2024-02-11T12:54:36.155Z,100.00
2024-02-11T12:56:40.772Z,100.00
2024-02-11T12:58:47.278Z,100.00
2024-02-11T13:00:52.355Z,100.00
2024-02-11T13:02:57.840Z,100.00
2024-02-11T13:05:02.594Z,100.00
2024-02-11T13:07:07.404Z,100.00
2024-02-11T13:09:15.338Z,100.00
2024-02-11T13:11:23.493Z,100.00
2024-02-11T13:13:28.821Z,100.00
2024-02-11T13:15:35.649Z,100.00
2024-02-11T13:17:41.584Z,100.00
2024-02-11T13:19:46.107Z,100.00
2024-02-11T13:21:53.015Z,100.00
2024-02-11T13:23:57.998Z,100.00
2024-02-11T13:26:02.944Z,100.00
2024-02-11T13:28:07.359Z,100.00
2024-02-11T13:30:13.469Z,100.00
2024-02-11T13:32:19.323Z,100.00
2024-02-11T13:34:23.685Z,100.00
2024-02-11T13:36:28.787Z,100.00
2024-02-11T13:38:33.814Z,100.00
2024-02-11T13:40:39.198Z,100.00
2024-02-11T13:42:43.973Z,100.00
2024-02-11T13:44:50.049Z,100.00
2024-02-11T13:46:55.251Z,100.00
2024-02-11T13:49:01.001Z,100.00
2024-02-11T13:51:04.063Z,100.00
2024-02-11T13:53:09.737Z,100.00
2024-02-11T13:55:14.467Z,100.00
2024-02-11T13:57:19.626Z,100.00
2024-02-11T13:59:24.956Z,100.00
2024-02-11T14:01:31.138Z,100.00
2024-02-11T14:03:36.098Z,100.00
2024-02-11T14:05:42.570Z,100.00
2024-02-11T14:07:47.485Z,100.00
2024-02-11T14:09:54.484Z,100.00
2024-02-11T14:11:59.887Z,100.00
2024-02-11T14:14:09.668Z,99.77
2024-02-11T14:16:13.627Z,98.88
2024-02-11T14:18:18.420Z,98.95
2024-02-11T14:20:22.530Z,99.08
2024-02-11T14:22:27.744Z,98.39
2024-02-11T14:24:32.335Z,99.32
2024-02-11T14:26:36.330Z,100.00
2024-02-11T14:28:40.061Z,99.78
2024-02-11T14:30:44.949Z,98.63
2024-02-11T14:32:50.711Z,98.69
2024-02-11T14:34:56.902Z,97.92
2024-02-11T14:37:01.356Z,97.93
2024-02-11T14:39:07.437Z,96.60
2024-02-11T14:41:12.389Z,95.61
2024-02-11T14:43:16.173Z,95.22
2024-02-11T14:45:21.818Z,96.15
2024-02-11T14:47:25.742Z,96.24
2024-02-11T14:49:30.563Z,95.90
2024-02-11T14:51:34.547Z,95.49
2024-02-11T14:53:40.283Z,95.55
2024-02-11T14:55:45.688Z,95.40
2024-02-11T14:57:49.645Z,96.14
2024-02-11T14:59:54.430Z,97.51
2024-02-11T15:01:58.379Z,98.19
2024-02-11T15:04:01.115Z,98.76
2024-02-11T15:06:05.700Z,98.76
2024-02-11T15:08:10.346Z,97.89
2024-02-11T15:10:17.425Z,97.40
2024-02-11T15:12:22.672Z,97.50
2024-02-11T15:14:26.449Z,96.26
2024-02-11T15:16:30.431Z,95.72
2024-02-11T15:18:34.634Z,96.77
2024-02-11T15:20:40.459Z,97.02
2024-02-11T15:22:46.536Z,96.45
2024-02-11T15:24:50.297Z,95.85
2024-02-11T15:26:52.823Z,96.55
2024-02-11T15:28:58.264Z,97.52
2024-02-11T15:31:03.126Z,98.83
2024-02-11T15:33:08.427Z,99.47
2024-02-11T15:35:12.475Z,100.00
2024-02-11T15:37:16.251Z,99.90
2024-02-11T15:39:23.557Z,99.98
2024-02-11T15:41:27.315Z,99.76
2024-02-11T15:43:31.032Z,98.20
2024-02-11T15:45:37.074Z,97.75
2024-02-11T15:47:41.137Z,97.96
2024-02-11T15:49:45.659Z,98.01
2024-02-11T15:51:52.708Z,97.66
2024-02-11T15:53:57.441Z,97.50
2024-02-11T15:56:01.794Z,99.18
2024-02-11T15:58:06.640Z,100.00
2024-02-11T16:00:17.898Z,100.00
2024-02-11T16:02:24.330Z,100.00
2024-02-11T16:04:29.010Z,100.00
2024-02-11T16:06:33.853Z,100.00
2024-02-11T16:08:38.161Z,100.00
2024-02-11T16:10:42.811Z,100.00
2024-02-11T16:12:48.031Z,100.00
2024-02-11T16:14:53.207Z,100.00
2024-02-11T16:16:59.037Z,100.00
2024-02-11T16:19:06.892Z,100.00
2024-02-11T16:21:14.600Z,100.00
2024-02-11T16:23:19.130Z,100.00
2024-02-11T16:25:23.522Z,100.00
2024-02-11T16:27:27.732Z,100.00
2024-02-11T16:29:32.154Z,100.00
2024-02-11T16:31:34.946Z,100.00
2024-02-11T16:33:39.099Z,100.00
2024-02-11T16:35:43.672Z,100.00
2024-02-11T16:37:47.645Z,100.00
2024-02-11T16:39:51.955Z,100.00
2024-02-11T16:41:56.704Z,100.00
2024-02-11T16:44:01.497Z,100.00
2024-02-11T16:46:06.212Z,100.00
2024-02-11T16:48:13.113Z,100.00
2024-02-11T16:50:17.595Z,100.00
2024-02-11T16:52:23.692Z,100.00
2024-02-11T16:54:27.728Z,100.00
2024-02-11T16:56:31.451Z,100.00
2024-02-11T16:58:35.768Z,100.00
2024-02-11T17:00:40.097Z,100.00
2024-02-11T17:02:48.305Z,100.00
2024-02-11T17:04:53.778Z,100.00
2024-02-11T17:06:58.736Z,100.00
2024-02-11T17:09:06.761Z,100.00
2024-02-11T17:11:15.531Z,100.00
2024-02-11T17:13:20.219Z,100.00
2024-02-11T17:15:24.974Z,100.00
2024-02-11T17:17:28.396Z,100.00
2024-02-11T17:19:32.462Z,100.00
2024-02-11T17:21:35.678Z,100.00
2024-02-11T17:23:41.803Z,100.00
2024-02-11T17:25:52.804Z,100.00
2024-02-11T17:27:58.529Z,100.00
2024-02-11T17:30:03.157Z,100.00
2024-02-11T17:32:17.178Z,100.00
2024-02-11T17:34:30.879Z,100.00
2024-02-11T17:36:38.422Z,100.00
2024-02-11T17:38:41.958Z,100.00
2024-02-11T17:40:49.144Z,100.00
2024-02-11T17:42:53.279Z,100.00
2024-02-11T17:44:58.206Z,100.00
2024-02-11T17:47:02.848Z,100.00
2024-02-11T17:49:07.765Z,100.00
2024-02-11T17:51:11.851Z,100.00
2024-02-11T17:53:16.776Z,100.00
2024-02-11T17:55:21.811Z,100.00
2024-02-11T17:57:27.675Z,100.00
2024-02-11T17:59:34.118Z,100.00
2024-02-11T18:01:39.301Z,100.00
2024-02-11T18:03:44.759Z,100.00
2024-02-11T18:05:51.490Z,100.00
2024-02-11T18:07:56.148Z,100.00
2024-02-11T18:10:00.353Z,100.00
2024-02-11T18:12:07.100Z,100.00
2024-02-11T18:14:13.522Z,100.00
2024-02-11T18:16:18.138Z,100.00
2024-02-11T18:18:24.395Z,100.00
2024-02-11T18:20:30.018Z,100.00
2024-02-11T18:22:34.827Z,100.00
2024-02-11T18:24:39.646Z,100.00
2024-02-11T18:26:44.207Z,100.00
2024-02-11T18:28:50.407Z,100.00
2024-02-11T18:30:58.934Z,100.00
2024-02-11T18:33:05.905Z,100.00
2024-02-11T18:35:12.504Z,100.00
2024-02-11T18:37:21.120Z,100.00
2024-02-11T18:39:26.460Z,100.00
2024-02-11T18:41:31.605Z,100.00
2024-02-11T18:43:35.308Z,100.00
2024-02-11T18:45:39.155Z,100.00
2024-02-11T18:47:44.740Z,100.00
2024-02-11T18:49:48.987Z,100.00
2024-02-11T18:51:53.488Z,100.00
2024-02-11T18:53:57.309Z,100.00
2024-02-11T18:56:01.395Z,100.00
2024-02-11T18:58:07.875Z,100.00
2024-02-11T19:00:11.966Z,100.00
2024-02-11T19:02:16.569Z,100.00
2024-02-11T19:04:22.307Z,100.00
2024-02-11T19:06:26.911Z,100.00
2024-02-11T19:08:31.901Z,100.00
2024-02-11T19:10:37.373Z,100.00
2024-02-11T19:12:42.345Z,100.00
2024-02-11T19:14:46.392Z,100.00
2024-02-11T19:16:50.267Z,100.00
2024-02-11T19:18:54.069Z,100.00
2024-02-11T19:20:59.431Z,100.00
2024-02-11T19:23:06.422Z,100.00
2024-02-11T19:25:10.435Z,100.00
2024-02-11T19:27:14.289Z,100.00
2024-02-11T19:29:18.350Z,100.00
2024-02-11T19:31:22.220Z,100.00
2024-02-11T19:33:26.273Z,100.00
2024-02-11T19:35:30.379Z,100.00
2024-02-11T19:37:37.208Z,100.00
2024-02-11T19:39:41.237Z,100.00
2024-02-11T19:41:46.642Z,100.00
2024-02-11T19:43:50.969Z,100.00
2024-02-11T19:45:55.009Z,100.00
2024-02-11T19:48:02.994Z,100.00
2024-02-11T19:50:09.728Z,100.00
2024-02-11T19:52:14.451Z,100.00
2024-02-11T19:54:20.629Z,100.00
2024-02-11T19:56:24.965Z,100.00
2024-02-11T19:58:29.206Z,100.00
2024-02-11T20:00:33.472Z,100.00
2024-02-11T20:02:37.568Z,100.00
2024-02-11T20:04:41.389Z,100.00
2024-02-11T20:06:46.242Z,100.00
2024-02-11T20:08:53.101Z,100.00
2024-02-11T20:10:59.366Z,100.00
2024-02-11T20:13:04.616Z,100.00
2024-02-11T20:15:12.609Z,100.00
2024-02-11T20:17:18.059Z,100.00
2024-02-11T20:19:25.554Z,100.00
2024-02-11T20:21:30.194Z,100.00
2024-02-11T20:23:34.952Z,100.00
2024-02-11T20:25:39.727Z,100.00
2024-02-11T20:27:45.963Z,100.00
2024-02-11T20:29:50.032Z,100.00
2024-02-11T20:31:58.352Z,100.00
2024-02-11T20:34:02.725Z,100.00
2024-02-11T20:36:09.241Z,100.00
2024-02-11T20:38:15.798Z,100.00
2024-02-11T20:40:20.736Z,100.00
2024-02-11T20:42:26.795Z,100.00
2024-02-11T20:44:33.914Z,100.00
2024-02-11T20:46:41.051Z,100.00
2024-02-11T20:48:45.384Z,100.00
2024-02-11T20:50:49.937Z,100.00
2024-02-11T20:52:55.123Z,100.00
2024-02-11T20:54:57.756Z,100.00
2024-02-11T20:57:01.845Z,100.00
2024-02-11T20:59:09.987Z,100.00
2024-02-11T21:01:15.744Z,100.00
2024-02-11T21:03:20.154Z,100.00
2024-02-11T21:05:25.477Z,100.00
2024-02-11T21:07:29.949Z,100.00
2024-02-11T21:09:34.447Z,100.00
2024-02-11T21:11:38.853Z,100.00
2024-02-11T21:13:43.848Z,100.00
2024-02-11T21:15:49.466Z,100.00
2024-02-11T21:17:56.994Z,100.00
2024-02-11T21:20:02.054Z,100.00
2024-02-11T21:22:08.510Z,100.00
2024-02-11T21:24:12.754Z,100.00
2024-02-11T21:26:18.583Z,100.00
2024-02-11T21:28:23.541Z,100.00
2024-02-11T21:30:29.894Z,100.00
2024-02-11T21:32:34.585Z,100.00
2024-02-11T21:34:40.184Z,100.00
2024-02-11T21:36:48.313Z,100.00
2024-02-11T21:38:53.710Z,100.00
2024-02-11T21:40:57.838Z,100.00
2024-02-11T21:43:02.647Z,100.00
2024-02-11T21:45:08.981Z,100.00
2024-02-11T21:47:13.923Z,100.00
2024-02-11T21:49:18.463Z,100.00
2024-02-11T21:51:24.237Z,100.00
2024-02-11T21:53:29.403Z,100.00
2024-02-11T21:55:33.402Z,100.00
2024-02-11T21:57:37.619Z,100.00
2024-02-11T21:59:42.302Z,100.00
2024-02-11T22:01:48.483Z,100.00
2024-02-11T22:03:53.077Z,100.00
2024-02-11T22:05:58.805Z,100.00
2024-02-11T22:08:07.667Z,100.00
2024-02-11T22:10:13.685Z,100.00
2024-02-11T22:12:18.427Z,100.00
2024-02-11T22:14:23.248Z,100.00
2024-02-11T22:16:27.452Z,100.00
2024-02-11T22:18:31.126Z,100.00
2024-02-11T22:20:35.609Z,100.00
2024-02-11T22:22:40.588Z,100.00
2024-02-11T22:24:46.047Z,100.00
2024-02-11T22:26:50.057Z,100.00
2024-02-11T22:28:53.955Z,100.00
2024-02-11T22:30:58.358Z,100.00
2024-02-11T22:33:02.660Z,100.00
2024-02-11T22:35:10.419Z,100.00
2024-02-11T22:37:16.791Z,100.00
2024-02-11T22:39:22.948Z,100.00
2024-02-11T22:41:28.683Z,100.00
2024-02-11T22:43:31.712Z,100.00
2024-02-11T22:45:35.837Z,100.00
2024-02-11T22:47:39.795Z,100.00
2024-02-11T22:49:45.469Z,100.00
2024-02-11T22:51:49.698Z,100.00
2024-02-11T22:53:54.076Z,100.00
2024-02-11T22:55:58.461Z,100.00
2024-02-11T22:58:03.846Z,100.00
2024-02-11T23:00:33.823Z,100.00
2024-02-11T23:02:39.182Z,100.00
2024-02-11T23:04:43.669Z,100.00
2024-02-11T23:06:47.466Z,100.00
2024-02-11T23:08:50.680Z,100.00
2024-02-11T23:10:54.646Z,100.00
2024-02-11T23:12:57.648Z,100.00
2024-02-11T23:15:07.108Z,100.00
2024-02-11T23:17:12.343Z,100.00
2024-02-11T23:19:16.112Z,100.00
2024-02-11T23:21:20.066Z,100.00
2024-02-11T23:23:24.633Z,100.00
2024-02-11T23:25:29.051Z,100.00
2024-02-11T23:27:32.831Z,100.00
2024-02-11T23:29:39.229Z,100.00
2024-02-11T23:31:45.955Z,100.00
2024-02-11T23:33:50.525Z,100.00
2024-02-11T23:35:57.023Z,100.00
2024-02-11T23:38:01.550Z,100.00
2024-02-11T23:40:11.010Z,100.00
2024-02-11T23:42:15.960Z,100.00
2024-02-11T23:44:21.200Z,100.00
2024-02-11T23:46:26.075Z,100.00
2024-02-11T23:48:32.466Z,100.00
2024-02-11T23:50:36.968Z,100.00
2024-02-11T23:52:42.809Z,100.00
2024-02-11T23:54:47.411Z,100.00
2024-02-11T23:56:53.297Z,100.00
2024-02-11T23:58:57.852Z,100.00
